createdAt,value
2023-02-18T00:02:08.041Z,97686.16
2023-02-18T00:04:41.171Z,97683.72
2023-02-18T00:07:11.529Z,97685.78
2023-02-18T00:12:38.622Z,97689.25
2023-02-18T00:15:07.871Z,97693.69
2023-02-18T00:17:36.618Z,97695.13
2023-02-18T00:20:05.787Z,97686.69
2023-02-18T00:22:36.106Z,97688.03
2023-02-18T00:25:05.337Z,97691.56
2023-02-18T00:30:21.717Z,97687.59
2023-02-18T00:32:50.620Z,97688.03
2023-02-18T00:35:19.294Z,97687.84
2023-02-18T00:40:46.560Z,97683.38
2023-02-18T00:43:17.319Z,97678.53
2023-02-18T00:45:45.815Z,97676.72
2023-02-18T00:51:03.110Z,97681.97
2023-02-18T00:53:34.937Z,97681.25
2023-02-18T00:56:07.786Z,97681.56
2023-02-18T00:58:37.457Z,97691.38
2023-02-18T01:03:57.586Z,97685.91
2023-02-18T01:06:26.599Z,97686.72
2023-02-18T01:11:56.765Z,97685.22
2023-02-18T01:14:25.552Z,97678.09
2023-02-18T01:16:54.129Z,97677.50
2023-02-18T01:19:23.056Z,97677.00
2023-02-18T01:24:44.838Z,97669.84
2023-02-18T01:27:16.284Z,97671.44
2023-02-18T01:35:14.994Z,97674.78
2023-02-18T01:40:51.465Z,97670.56
2023-02-18T01:43:22.993Z,97656.88
2023-02-18T01:46:04.102Z,97666.50
2023-02-18T01:48:39.978Z,97661.53
2023-02-18T01:51:14.570Z,97652.34
2023-02-18T01:53:51.679Z,97647.47
2023-02-18T01:56:29.012Z,97654.03
2023-02-18T01:59:01.551Z,97657.59
2023-02-18T02:01:31.874Z,97658.09
2023-02-18T02:04:00.966Z,97646.88
2023-02-18T02:06:30.293Z,97649.31
2023-02-18T02:12:50.792Z,97640.06
2023-02-18T02:15:38.263Z,97632.38
2023-02-18T02:22:06.906Z,97628.06
2023-02-18T02:25:23.419Z,97629.34
2023-02-18T02:28:41.737Z,97625.19
2023-02-18T02:31:55.863Z,97619.75
2023-02-18T02:34:52.293Z,97631.78
2023-02-18T02:40:35.194Z,97623.38
2023-02-18T02:46:07.938Z,97619.84
2023-02-18T02:48:47.769Z,97619.84
2023-02-18T02:51:28.635Z,97620.66
2023-02-18T02:54:16.222Z,97612.94
2023-02-18T02:56:45.040Z,97613.97
2023-02-18T02:59:21.857Z,97608.81
2023-02-18T03:02:13.293Z,97608.50
2023-02-18T03:05:15.270Z,97605.59
2023-02-18T03:08:23.979Z,97599.28
2023-02-18T03:11:04.690Z,97596.66
2023-02-18T03:16:56.952Z,97593.13
2023-02-18T03:22:32.185Z,97591.50
2023-02-18T03:25:05.536Z,97590.59
2023-02-18T03:27:49.417Z,97588.28
2023-02-18T03:30:44.912Z,97597.59
2023-02-18T03:33:21.479Z,97598.09
2023-02-18T03:35:54.274Z,97602.25
2023-02-18T03:54:51.148Z,97589.31
2023-02-18T03:57:19.868Z,97586.03
2023-02-18T03:59:49.236Z,97596.38
2023-02-18T04:05:14.614Z,97601.94
2023-02-18T04:07:54.562Z,97603.25
2023-02-18T04:10:43.207Z,97604.38
2023-02-18T04:13:34.916Z,97612.88
2023-02-18T04:16:13.729Z,97612.25
2023-02-18T04:18:42.686Z,97615.69
2023-02-18T04:21:13.553Z,97617.00
2023-02-18T04:23:43.470Z,97609.13
2023-02-18T04:26:12.274Z,97611.66
2023-02-18T04:28:48.646Z,97611.66
2023-02-18T04:34:35.846Z,97598.50
2023-02-18T04:37:04.450Z,97610.22
2023-02-18T04:42:26.853Z,97594.78
2023-02-18T04:44:55.638Z,97597.16
2023-02-18T04:47:24.401Z,97595.75
2023-02-18T04:49:53.134Z,97594.97
2023-02-18T04:52:21.999Z,97604.44
2023-02-18T04:54:55.532Z,97602.53
2023-02-18T04:57:24.313Z,97601.59
2023-02-18T04:59:53.041Z,97598.38
2023-02-18T05:02:21.969Z,97601.41
2023-02-18T05:04:50.540Z,97600.91
2023-02-18T05:10:24.659Z,97583.84
2023-02-18T05:12:53.163Z,97584.44
2023-02-18T05:15:21.615Z,97595.88
2023-02-18T05:17:50.053Z,97589.91
2023-02-18T05:20:18.800Z,97591.50
2023-02-18T05:22:47.407Z,97584.75
2023-02-18T05:25:16.302Z,97588.59
2023-02-18T05:27:46.524Z,97577.97
2023-02-18T05:30:15.798Z,97587.59
2023-02-18T05:32:44.593Z,97578.06
2023-02-18T05:35:15.663Z,97583.03
2023-02-18T05:37:44.187Z,97593.13
2023-02-18T05:40:13.717Z,97595.56
2023-02-18T05:42:42.688Z,97590.41
2023-02-18T05:45:24.066Z,97594.47
2023-02-18T05:47:53.041Z,97588.50
2023-02-18T05:50:22.715Z,97593.97
2023-02-18T05:52:51.516Z,97580.00
2023-02-18T05:55:20.591Z,97591.94
2023-02-18T05:57:49.156Z,97591.00
2023-02-18T06:00:30.219Z,97592.66
2023-02-18T06:03:22.275Z,97587.78
2023-02-18T06:05:53.348Z,97590.41
2023-02-18T06:08:21.586Z,97589.38
2023-02-18T06:10:50.299Z,97585.84
2023-02-18T06:13:19.093Z,97586.97
2023-02-18T06:15:47.575Z,97589.69
2023-02-18T06:18:15.911Z,97588.88
2023-02-18T06:20:45.659Z,97590.53
2023-02-18T06:23:14.094Z,97581.72
2023-02-18T06:25:43.172Z,97577.97
2023-02-18T06:28:11.762Z,97580.38
2023-02-18T06:30:40.835Z,97587.28
2023-02-18T06:36:13.791Z,97587.59
2023-02-18T06:38:45.338Z,97580.38
2023-02-18T06:41:15.393Z,97577.34
2023-02-18T06:43:45.542Z,97567.53
2023-02-18T06:46:14.012Z,97583.91
2023-02-18T06:48:42.549Z,97586.16
2023-02-18T06:51:12.496Z,97588.88
2023-02-18T06:56:30.730Z,97593.75
2023-02-18T06:58:59.403Z,97589.38
2023-02-18T07:01:27.838Z,97589.38
2023-02-18T07:03:56.755Z,97589.91
2023-02-18T07:06:26.631Z,97582.03
2023-02-18T07:08:55.350Z,97580.38
2023-02-18T07:20:24.525Z,97576.13
2023-02-18T07:22:54.961Z,97572.56
2023-02-18T07:28:13.925Z,97569.94
2023-02-18T07:30:42.683Z,97564.19
2023-02-18T07:33:11.466Z,97564.38
2023-02-18T07:35:39.814Z,97565.56
2023-02-18T07:38:10.649Z,97568.00
2023-02-18T07:40:39.110Z,97563.03
2023-02-18T07:43:08.867Z,97564.34
2023-02-18T07:45:39.856Z,97567.75
2023-02-18T07:48:11.757Z,97564.41
2023-02-18T07:50:42.141Z,97552.38
2023-02-18T07:53:18.170Z,97548.97
2023-02-18T07:58:59.341Z,97562.25
2023-02-18T08:01:38.658Z,97549.88
2023-02-18T08:04:07.852Z,97553.72
2023-02-18T08:06:39.654Z,97557.75
2023-02-18T08:09:10.189Z,97544.72
2023-02-18T08:11:38.642Z,97545.09
2023-02-18T08:14:07.957Z,97543.78
2023-02-18T08:16:37.075Z,97546.88
2023-02-18T08:19:06.287Z,97553.66
2023-02-18T08:21:35.375Z,97540.78
2023-02-18T08:24:04.134Z,97519.91
2023-02-18T08:26:34.383Z,97531.03
2023-02-18T08:29:03.142Z,97541.56
2023-02-18T08:31:33.023Z,97522.94
2023-02-18T08:34:04.823Z,97531.94
2023-02-18T08:36:33.618Z,97521.31
2023-02-18T08:39:02.427Z,97520.56
2023-02-18T08:41:31.039Z,97522.53
2023-02-18T08:44:00.825Z,97511.75
2023-02-18T08:46:35.689Z,97503.28
2023-02-18T08:49:06.352Z,97512.16
2023-02-18T08:51:35.284Z,97509.19
2023-02-18T08:54:10.040Z,97517.19
2023-02-18T08:59:31.356Z,97501.47
2023-02-18T09:01:59.954Z,97513.75
2023-02-18T09:04:28.784Z,97510.19
2023-02-18T09:06:58.040Z,97510.94
2023-02-18T09:09:26.989Z,97489.06
2023-02-18T09:11:55.545Z,97474.91
2023-02-18T09:14:28.714Z,97490.56
2023-02-18T09:16:59.820Z,97489.88
2023-02-18T09:19:28.454Z,97484.44
2023-02-18T09:21:59.177Z,97484.72
2023-02-18T09:27:29.997Z,97471.69
2023-02-18T09:30:03.168Z,97481.19
2023-02-18T09:35:41.741Z,97467.81
2023-02-18T09:38:11.785Z,97468.47
2023-02-18T09:43:45.028Z,97472.84
2023-02-18T09:46:22.944Z,97469.47
2023-02-18T09:48:54.275Z,97463.19
2023-02-18T09:51:34.021Z,97454.34
2023-02-18T09:54:04.052Z,97448.53
2023-02-18T09:56:40.462Z,97433.22
2023-02-18T09:59:17.282Z,97444.19
2023-02-18T10:01:52.048Z,97433.53
2023-02-18T10:04:30.251Z,97417.41
2023-02-18T10:07:03.789Z,97423.38
2023-02-18T10:09:36.712Z,97423.06
2023-02-18T10:12:17.389Z,97415.31
2023-02-18T10:14:50.529Z,97415.97
2023-02-18T10:17:21.636Z,97413.88
2023-02-18T10:19:57.401Z,97415.63
2023-02-18T10:22:28.934Z,97420.81
2023-02-18T10:25:01.740Z,97411.78
2023-02-18T10:27:34.715Z,97405.97
2023-02-18T10:30:23.818Z,97407.91
2023-02-18T10:33:00.223Z,97396.47
2023-02-18T10:35:41.805Z,97408.38
2023-02-18T10:38:26.242Z,97418.53
2023-02-18T10:41:07.393Z,97398.69
2023-02-18T10:43:53.706Z,97414.16
2023-02-18T10:46:36.415Z,97407.06
2023-02-18T10:49:31.983Z,97415.44
2023-02-18T10:52:07.663Z,97420.25
2023-02-18T10:54:53.518Z,97398.66
2023-02-18T10:57:25.209Z,97394.78
2023-02-18T11:00:01.834Z,97399.06
2023-02-18T11:02:33.246Z,97391.94
2023-02-18T11:05:17.329Z,97380.94
2023-02-18T11:07:55.355Z,97377.84
2023-02-18T11:10:28.594Z,97375.91
2023-02-18T11:13:01.800Z,97377.81
2023-02-18T11:18:40.374Z,97376.75
2023-02-18T11:21:26.687Z,97370.78
2023-02-18T11:23:58.657Z,97357.91
2023-02-18T11:26:33.275Z,97333.47
2023-02-18T11:29:06.947Z,97335.13
2023-02-18T11:31:44.718Z,97340.25
2023-02-18T11:34:21.274Z,97335.25
2023-02-18T11:39:46.965Z,97324.25
2023-02-18T11:42:23.150Z,97328.34
2023-02-18T11:47:43.868Z,97329.72
2023-02-18T11:50:24.636Z,97326.31
2023-02-18T11:52:53.978Z,97325.84
2023-02-18T11:58:46.603Z,97312.09
2023-02-18T12:01:34.640Z,97326.72
2023-02-18T12:04:15.116Z,97313.28
2023-02-18T12:07:02.573Z,97313.25
2023-02-18T12:09:38.230Z,97295.22
2023-02-18T12:12:17.005Z,97298.88
2023-02-18T12:17:56.513Z,97307.88
2023-02-18T12:21:03.558Z,97287.91
2023-02-18T12:23:47.082Z,97287.31
2023-02-18T12:26:28.137Z,97264.88
2023-02-18T12:29:20.511Z,97279.47
2023-02-18T12:32:13.879Z,97275.38
2023-02-18T12:35:04.398Z,97272.50
2023-02-18T12:41:40.772Z,97278.81
2023-02-18T12:44:26.923Z,97269.41
2023-02-18T12:47:30.733Z,97266.88
2023-02-18T12:50:32.777Z,97282.78
2023-02-18T12:53:30.994Z,97291.19
2023-02-18T12:56:34.739Z,97279.59
2023-02-18T12:59:19.425Z,97282.28
2023-02-18T13:02:04.450Z,97262.59
2023-02-18T13:04:52.307Z,97259.53
2023-02-18T13:07:52.529Z,97262.94
2023-02-18T13:10:46.720Z,97265.09
2023-02-18T13:13:22.114Z,97272.50
2023-02-18T13:16:00.009Z,97266.22
2023-02-18T13:18:35.144Z,97263.19
2023-02-18T13:21:08.020Z,97264.78
2023-02-18T13:23:45.886Z,97266.75
2023-02-18T13:26:19.825Z,97268.53
2023-02-18T13:29:17.032Z,97254.81
2023-02-18T13:32:10.691Z,97252.59
2023-02-18T13:34:51.887Z,97250.34
2023-02-18T13:37:33.119Z,97256.16
2023-02-18T13:40:03.635Z,97256.28
2023-02-18T13:42:38.690Z,97258.19
2023-02-18T13:45:31.807Z,97258.63
2023-02-18T13:48:01.905Z,97253.22
2023-02-18T13:50:44.463Z,97254.28
2023-02-18T13:53:29.296Z,97255.09
2023-02-18T13:56:05.388Z,97242.53
2023-02-18T13:58:42.052Z,97252.56
2023-02-18T14:01:26.061Z,97247.97
2023-02-18T14:04:01.827Z,97260.94
2023-02-18T14:06:39.144Z,97243.78
2023-02-18T14:09:43.078Z,97251.13
2023-02-18T14:12:27.685Z,97248.34
2023-02-18T14:14:56.292Z,97242.06
2023-02-18T14:17:43.409Z,97242.47
2023-02-18T14:20:48.163Z,97248.06
2023-02-18T14:23:44.722Z,97250.19
2023-02-18T14:26:26.403Z,97240.50
2023-02-18T14:29:00.102Z,97230.97
2023-02-18T14:31:50.367Z,97230.44
2023-02-18T14:35:02.414Z,97223.19
2023-02-18T14:38:08.611Z,97225.44
2023-02-18T14:40:57.742Z,97229.31
2023-02-18T14:43:51.234Z,97228.56
2023-02-18T14:46:38.305Z,97220.09
2023-02-18T14:49:38.203Z,97229.66
2023-02-18T14:52:16.439Z,97221.09
2023-02-18T14:54:47.453Z,97218.22
2023-02-18T14:57:20.333Z,97223.03
2023-02-18T14:59:49.102Z,97233.38
2023-02-18T15:02:23.738Z,97209.53
2023-02-18T15:04:53.777Z,97228.88
2023-02-18T15:07:24.031Z,97229.41
2023-02-18T15:09:56.337Z,97225.25
2023-02-18T15:12:26.635Z,97233.81
2023-02-18T15:15:06.954Z,97232.53
2023-02-18T15:17:35.587Z,97237.41
2023-02-18T15:20:09.405Z,97236.94
2023-02-18T15:22:38.232Z,97243.06
2023-02-18T15:25:07.755Z,97241.94
2023-02-18T15:27:44.404Z,97238.25
2023-02-18T15:30:23.146Z,97232.75
2023-02-18T15:32:57.300Z,97229.09
2023-02-18T15:35:30.950Z,97221.31
2023-02-18T15:38:04.236Z,97216.47
2023-02-18T15:43:30.084Z,97212.31
2023-02-18T15:46:00.257Z,97216.16
2023-02-18T15:48:40.783Z,97218.59
2023-02-18T15:51:22.785Z,97198.25
2023-02-18T15:53:55.912Z,97207.00
2023-02-18T15:56:33.945Z,97207.16
2023-02-18T15:59:19.583Z,97208.13
2023-02-18T16:01:52.622Z,97204.13
2023-02-18T16:04:35.117Z,97204.78
2023-02-18T16:07:26.843Z,97212.06
2023-02-18T16:10:26.577Z,97213.19
2023-02-18T16:13:00.536Z,97219.34
2023-02-18T16:15:38.371Z,97218.25
2023-02-18T16:18:08.405Z,97229.06
2023-02-18T16:20:42.100Z,97226.66
2023-02-18T16:23:16.004Z,97222.94
2023-02-18T16:25:51.038Z,97223.28
2023-02-18T16:28:28.039Z,97211.84
2023-02-18T16:30:56.962Z,97223.94
2023-02-18T16:33:29.253Z,97220.25
2023-02-18T16:35:58.007Z,97215.09
2023-02-18T16:38:31.401Z,97228.00
2023-02-18T16:41:00.490Z,97227.84
2023-02-18T16:43:32.729Z,97234.94
2023-02-18T16:46:11.477Z,97231.91
2023-02-18T16:48:47.295Z,97227.91
2023-02-18T16:51:22.322Z,97220.66
2023-02-18T16:54:00.264Z,97233.41
2023-02-18T16:56:39.783Z,97229.72
2023-02-18T16:59:08.875Z,97234.03
2023-02-18T17:01:45.093Z,97243.88
2023-02-18T17:04:18.365Z,97240.66
2023-02-18T17:06:48.712Z,97244.22
2023-02-18T17:09:22.236Z,97244.22
2023-02-18T17:11:53.303Z,97248.75
2023-02-18T17:14:23.294Z,97263.22
2023-02-18T17:16:55.271Z,97261.13
2023-02-18T17:19:23.867Z,97262.75
2023-02-18T17:21:52.180Z,97275.00
2023-02-18T17:24:27.027Z,97276.78
2023-02-18T17:26:55.439Z,97276.44
2023-02-18T17:29:23.843Z,97280.66
2023-02-18T17:31:57.667Z,97275.31
2023-02-18T17:34:29.101Z,97281.91
2023-02-18T17:36:58.102Z,97297.72
2023-02-18T17:39:29.743Z,97301.56
2023-02-18T17:41:58.266Z,97305.59
2023-02-18T17:44:29.121Z,97305.59
2023-02-18T17:46:57.466Z,97309.94
2023-02-18T17:49:25.804Z,97306.72
2023-02-18T17:51:58.211Z,97304.47
2023-02-18T17:54:28.425Z,97306.88
2023-02-18T17:56:56.907Z,97316.41
2023-02-18T17:59:25.286Z,97319.94
2023-02-18T18:01:53.590Z,97316.41
2023-02-18T18:04:22.208Z,97325.75
2023-02-18T18:06:51.169Z,97333.81
2023-02-18T18:09:23.092Z,97319.28
2023-02-18T18:11:52.899Z,97330.56
2023-02-18T18:14:21.228Z,97333.94
2023-02-18T18:16:49.699Z,97337.81
2023-02-18T18:19:18.059Z,97338.94
2023-02-18T18:21:47.053Z,97339.44
2023-02-18T18:24:15.373Z,97335.25
2023-02-18T18:26:43.780Z,97332.66
2023-02-18T18:29:13.462Z,97333.28
2023-02-18T18:31:42.750Z,97339.13
2023-02-18T18:34:11.907Z,97346.66
2023-02-18T18:36:40.549Z,97348.78
2023-02-18T18:39:09.595Z,97350.53
2023-02-18T18:41:38.361Z,97344.56
2023-02-18T18:44:07.565Z,97343.63
2023-02-18T18:46:37.231Z,97353.13
2023-02-18T18:49:05.633Z,97363.91
2023-02-18T18:51:34.782Z,97354.72
2023-02-18T18:54:03.319Z,97362.38
2023-02-18T18:56:32.035Z,97362.06
2023-02-18T18:59:00.801Z,97362.03
2023-02-18T19:01:29.757Z,97360.69
2023-02-18T19:03:59.497Z,97367.63
2023-02-18T19:06:27.915Z,97357.81
2023-02-18T19:08:56.336Z,97364.22
2023-02-18T19:11:24.811Z,97358.59
2023-02-18T19:13:53.077Z,97373.03
2023-02-18T19:16:28.923Z,97372.19
2023-02-18T19:18:57.199Z,97376.34
2023-02-18T19:21:26.948Z,97383.06
2023-02-18T19:23:55.975Z,97372.75
2023-02-18T19:26:24.922Z,97388.34
2023-02-18T19:28:53.297Z,97388.16
2023-02-18T19:31:24.480Z,97391.63
2023-02-18T19:33:53.092Z,97378.97
2023-02-18T19:36:22.200Z,97378.72
2023-02-18T19:38:52.074Z,97386.13
2023-02-18T19:41:23.649Z,97379.34
2023-02-18T19:43:52.649Z,97385.81
2023-02-18T19:46:21.416Z,97381.28
2023-02-18T19:48:52.659Z,97380.75
2023-02-18T19:51:21.738Z,97388.38
2023-02-18T19:53:51.710Z,97391.03
2023-02-18T19:56:20.030Z,97386.63
2023-02-18T19:58:48.418Z,97388.75
2023-02-18T20:01:18.768Z,97384.53
2023-02-18T20:03:50.809Z,97388.44
2023-02-18T20:06:22.417Z,97393.81
2023-02-18T20:08:55.064Z,97398.06
2023-02-18T20:11:23.770Z,97403.53
2023-02-18T20:13:52.024Z,97394.00
2023-02-18T20:16:20.476Z,97399.66
2023-02-18T20:18:49.113Z,97396.25
2023-02-18T20:21:17.426Z,97404.13
2023-02-18T20:23:45.732Z,97404.00
2023-02-18T20:26:15.879Z,97398.84
2023-02-18T20:28:46.830Z,97396.94
2023-02-18T20:31:16.364Z,97396.44
2023-02-18T20:33:48.519Z,97405.94
2023-02-18T20:36:16.743Z,97402.91
2023-02-18T20:38:45.020Z,97403.72
2023-02-18T20:41:17.853Z,97402.31
2023-02-18T20:43:46.641Z,97407.16
2023-02-18T20:46:18.919Z,97405.81
2023-02-18T20:48:47.629Z,97406.53
2023-02-18T20:51:19.665Z,97406.34
2023-02-18T20:53:52.988Z,97401.47
2023-02-18T20:56:24.592Z,97405.56
2023-02-18T20:58:53.003Z,97401.97
2023-02-18T21:01:21.658Z,97399.69
2023-02-18T21:03:50.643Z,97387.25
2023-02-18T21:06:22.406Z,97398.66
2023-02-18T21:08:54.153Z,97403.72
2023-02-18T21:11:26.846Z,97395.44
2023-02-18T21:13:58.459Z,97395.44
2023-02-18T21:16:29.713Z,97387.75
2023-02-18T21:18:57.979Z,97399.50
2023-02-18T21:21:27.386Z,97394.03
2023-02-18T21:23:55.822Z,97395.31
2023-02-18T21:26:28.483Z,97391.06
2023-02-18T21:29:00.936Z,97394.13
2023-02-18T21:31:32.656Z,97390.56
2023-02-18T21:34:01.892Z,97402.22
2023-02-18T21:36:32.112Z,97392.97
2023-02-18T21:39:03.058Z,97402.53
2023-02-18T21:41:35.141Z,97394.63
2023-02-18T21:44:04.573Z,97399.25
2023-02-18T21:46:36.349Z,97403.91
2023-02-18T21:49:10.638Z,97402.09
2023-02-18T21:51:57.923Z,97395.22
2023-02-18T21:54:29.665Z,97394.91
2023-02-18T21:57:01.216Z,97394.63
2023-02-18T21:59:32.516Z,97381.56
2023-02-18T22:02:01.327Z,97398.16
2023-02-18T22:04:32.452Z,97402.09
2023-02-18T22:07:01.420Z,97397.44
2023-02-18T22:09:29.795Z,97400.09
2023-02-18T22:11:59.421Z,97400.97
2023-02-18T22:14:28.436Z,97396.75
2023-02-18T22:16:57.271Z,97396.31
2023-02-18T22:19:26.395Z,97394.19
2023-02-18T22:21:54.738Z,97389.16
2023-02-18T22:24:23.422Z,97384.53
2023-02-18T22:26:52.305Z,97385.44
2023-02-18T22:29:22.521Z,97386.13
2023-02-18T22:31:53.353Z,97382.59
2023-02-18T22:34:23.940Z,97378.47
2023-02-18T22:36:52.526Z,97384.94
2023-02-18T22:39:21.012Z,97383.94
2023-02-18T22:41:50.381Z,97388.06
2023-02-18T22:44:23.071Z,97384.53
2023-02-18T22:46:51.788Z,97386.66
2023-02-18T22:49:20.245Z,97377.47
2023-02-18T22:51:54.323Z,97376.47
2023-02-18T22:54:23.097Z,97381.13
2023-02-18T22:56:51.693Z,97385.16
2023-02-18T22:59:21.740Z,97374.44
2023-02-18T23:01:52.779Z,97376.66
2023-02-18T23:04:22.526Z,97365.66
2023-02-18T23:06:51.477Z,97367.78
2023-02-18T23:09:23.214Z,97363.25
2023-02-18T23:11:53.183Z,97369.81
2023-02-18T23:14:23.402Z,97352.94
2023-02-18T23:17:14.713Z,97351.63
2023-02-18T23:19:46.011Z,97351.63
2023-02-18T23:22:20.510Z,97353.03
2023-02-18T23:24:51.268Z,97350.59
2023-02-18T23:27:20.139Z,97357.78
2023-02-18T23:29:49.921Z,97352.34
2023-02-18T23:32:19.019Z,97344.75
2023-02-18T23:34:47.433Z,97342.53
2023-02-18T23:37:15.766Z,97337.06
2023-02-18T23:39:45.320Z,97348.47
2023-02-18T23:42:14.266Z,97339.31
2023-02-18T23:44:42.909Z,97337.69
2023-02-18T23:47:12.507Z,97336.88
2023-02-18T23:49:40.823Z,97331.13
2023-02-18T23:52:09.196Z,97335.78
2023-02-18T23:54:37.535Z,97321.31
2023-02-18T23:57:05.825Z,97324.56
2023-02-18T23:59:34.537Z,97320.75
